createdAt,value
2024-03-15T00:00:20.028Z,4.55
2024-03-15T00:00:42.610Z,4.55
2024-03-15T00:01:04.925Z,4.54
2024-03-15T00:01:27.441Z,4.53
2024-03-15T00:01:49.620Z,4.53
2024-03-15T00:02:11.889Z,4.51
2024-03-15T00:02:34.128Z,4.50
2024-03-15T00:02:56.757Z,4.49
2024-03-15T00:03:19.065Z,4.48
2024-03-15T00:03:41.561Z,4.47
2024-03-15T00:04:03.934Z,4.46
2024-03-15T00:04:26.071Z,4.45
2024-03-15T00:04:48.471Z,4.45
2024-03-15T00:05:10.602Z,4.45
2024-03-15T00:05:33.216Z,4.47
2024-03-15T00:05:55.391Z,4.47
2024-03-15T00:06:18.879Z,4.48
2024-03-15T00:06:41.078Z,4.50
2024-03-15T00:07:03.311Z,4.51
2024-03-15T00:07:25.401Z,4.52
2024-03-15T00:07:47.661Z,4.53
2024-03-15T00:08:10.099Z,4.54
2024-03-15T00:08:33.964Z,4.54
2024-03-15T00:08:57.661Z,4.55
2024-03-15T00:09:20.173Z,4.55
2024-03-15T00:09:42.488Z,4.55
2024-03-15T00:10:05.087Z,4.53
2024-03-15T00:10:27.163Z,4.53
2024-03-15T00:10:49.195Z,4.51
2024-03-15T00:11:11.744Z,4.50
2024-03-15T00:11:33.835Z,4.48
2024-03-15T00:11:56.453Z,4.47
2024-03-15T00:12:18.709Z,4.45
2024-03-15T00:12:42.066Z,4.45
2024-03-15T00:13:04.956Z,4.44
2024-03-15T00:13:27.437Z,4.43
2024-03-15T00:13:50.077Z,4.42
2024-03-15T00:14:12.260Z,4.41
2024-03-15T00:14:34.344Z,4.40
2024-03-15T00:14:56.776Z,4.39
2024-03-15T00:15:19.809Z,4.38
2024-03-15T00:15:42.180Z,4.37
2024-03-15T00:16:05.314Z,4.36
2024-03-15T00:16:29.949Z,4.36
2024-03-15T00:16:52.130Z,4.35
2024-03-15T00:17:14.305Z,4.36
2024-03-15T00:17:36.421Z,4.37
2024-03-15T00:17:59.817Z,4.39
2024-03-15T00:18:22.436Z,4.40
2024-03-15T00:18:44.775Z,4.42
2024-03-15T00:19:07.363Z,4.43
2024-03-15T00:19:29.610Z,4.40
2024-03-15T00:19:51.701Z,4.45
2024-03-15T00:20:14.008Z,4.47
2024-03-15T00:20:36.205Z,4.48
2024-03-15T00:20:58.384Z,4.49
2024-03-15T00:21:20.500Z,4.50
2024-03-15T00:21:42.828Z,4.50
2024-03-15T00:22:05.156Z,4.50
2024-03-15T00:22:27.282Z,4.49
2024-03-15T00:22:51.498Z,4.49
2024-03-15T00:23:13.703Z,4.48
2024-03-15T00:23:35.852Z,4.48
2024-03-15T00:23:57.912Z,4.47
2024-03-15T00:24:20.178Z,4.46
2024-03-15T00:24:43.274Z,4.46
2024-03-15T00:25:05.991Z,4.45
2024-03-15T00:25:28.105Z,4.45
2024-03-15T00:25:50.298Z,4.44
2024-03-15T00:26:12.473Z,4.43
2024-03-15T00:26:36.409Z,4.43
2024-03-15T00:27:01.122Z,4.42
2024-03-15T00:27:23.487Z,4.41
2024-03-15T00:27:45.568Z,4.40
2024-03-15T00:28:07.768Z,4.39
2024-03-15T00:28:29.830Z,4.39
2024-03-15T00:28:52.014Z,4.38
2024-03-15T00:29:14.737Z,4.39
2024-03-15T00:29:38.077Z,4.40
2024-03-15T00:30:00.434Z,4.41
2024-03-15T00:30:24.543Z,4.42
2024-03-15T00:30:47.084Z,4.43
2024-03-15T00:31:09.275Z,4.44
2024-03-15T00:31:31.668Z,4.46
2024-03-15T00:31:53.722Z,4.48
2024-03-15T00:32:15.794Z,4.48
2024-03-15T00:32:37.908Z,4.49
2024-03-15T00:33:00.174Z,4.50
2024-03-15T00:33:22.524Z,4.49
2024-03-15T00:33:44.842Z,4.49
2024-03-15T00:34:07.816Z,4.50
2024-03-15T00:34:31.871Z,4.49
2024-03-15T00:34:53.978Z,4.48
2024-03-15T00:35:16.031Z,4.48
2024-03-15T00:35:38.252Z,4.47
2024-03-15T00:36:00.395Z,4.46
2024-03-15T00:36:22.991Z,4.45
2024-03-15T00:36:46.154Z,4.45
2024-03-15T00:37:09.583Z,4.43
2024-03-15T00:37:31.721Z,4.43
2024-03-15T00:37:53.807Z,4.42
2024-03-15T00:38:16.167Z,4.41
2024-03-15T00:38:38.283Z,4.40
2024-03-15T00:39:00.881Z,4.40
2024-03-15T00:39:23.086Z,4.39
2024-03-15T00:39:45.239Z,4.38
2024-03-15T00:40:08.048Z,4.37
2024-03-15T00:40:30.455Z,4.37
2024-03-15T00:40:52.576Z,4.38
2024-03-15T00:41:16.595Z,4.38
2024-03-15T00:41:38.884Z,4.39
2024-03-15T00:42:00.998Z,4.41
2024-03-15T00:42:23.348Z,4.41
2024-03-15T00:42:45.567Z,4.42
2024-03-15T00:43:07.787Z,4.44
2024-03-15T00:43:30.245Z,4.44
2024-03-15T00:43:55.410Z,4.45
2024-03-15T00:44:17.500Z,4.45
2024-03-15T00:44:39.595Z,4.46
2024-03-15T00:45:03.753Z,4.45
2024-03-15T00:45:27.190Z,4.45
2024-03-15T00:45:49.487Z,4.44
2024-03-15T00:46:11.747Z,4.43
2024-03-15T00:46:33.791Z,4.43
2024-03-15T00:46:56.172Z,4.42
2024-03-15T00:47:18.325Z,4.40
2024-03-15T00:47:40.705Z,4.39
2024-03-15T00:48:04.665Z,4.38
2024-03-15T00:48:27.237Z,4.38
2024-03-15T00:48:54.498Z,4.36
2024-03-15T00:49:17.481Z,4.36
2024-03-15T00:49:40.089Z,4.34
2024-03-15T00:50:02.660Z,4.33
2024-03-15T00:50:25.185Z,4.33
2024-03-15T00:50:47.295Z,4.32
2024-03-15T00:51:09.462Z,4.32
2024-03-15T00:51:31.920Z,4.31
2024-03-15T00:51:54.202Z,4.30
2024-03-15T00:52:18.881Z,4.29
2024-03-15T00:52:42.028Z,4.29
2024-03-15T00:53:04.165Z,4.29
2024-03-15T00:53:26.218Z,4.29
2024-03-15T00:53:48.277Z,4.30
2024-03-15T00:54:10.971Z,4.30
2024-03-15T00:54:33.234Z,4.32
2024-03-15T00:54:57.429Z,4.34
2024-03-15T00:55:20.612Z,4.35
2024-03-15T00:55:42.840Z,4.37
2024-03-15T00:56:05.973Z,4.39
2024-03-15T00:56:28.158Z,4.40
2024-03-15T00:56:50.350Z,4.42
2024-03-15T00:57:12.451Z,4.43
2024-03-15T00:57:34.679Z,4.43
2024-03-15T00:57:57.198Z,4.43
2024-03-15T00:58:20.183Z,4.43
2024-03-15T00:58:42.321Z,4.42
2024-03-15T00:59:04.644Z,4.41
2024-03-15T00:59:26.823Z,4.40
2024-03-15T00:59:48.894Z,4.38
2024-03-15T01:00:11.607Z,4.38
2024-03-15T01:00:35.403Z,4.36
2024-03-15T01:00:58.379Z,4.35
2024-03-15T01:01:20.678Z,4.34
2024-03-15T01:01:44.261Z,4.33
2024-03-15T01:02:06.496Z,4.32
2024-03-15T01:02:31.280Z,4.31
2024-03-15T01:02:54.029Z,4.30
2024-03-15T01:03:16.483Z,4.29
2024-03-15T01:03:39.503Z,4.29
2024-03-15T01:04:01.630Z,4.28
2024-03-15T01:04:23.691Z,4.28
2024-03-15T01:04:45.819Z,4.27
2024-03-15T01:05:09.141Z,4.26
2024-03-15T01:05:31.318Z,4.26
2024-03-15T01:05:53.518Z,4.26
2024-03-15T01:06:15.740Z,4.27
2024-03-15T01:06:39.102Z,4.28
2024-03-15T01:07:02.886Z,4.29
2024-03-15T01:07:24.944Z,4.30
2024-03-15T01:07:47.034Z,4.32
2024-03-15T01:08:09.147Z,4.34
2024-03-15T01:08:31.261Z,4.35
2024-03-15T01:08:53.898Z,4.37
2024-03-15T01:09:16.068Z,4.38
2024-03-15T01:09:38.281Z,4.40
2024-03-15T01:10:00.444Z,4.40
2024-03-15T01:10:22.508Z,4.41
2024-03-15T01:10:44.835Z,4.41
2024-03-15T01:11:07.264Z,4.41
2024-03-15T01:11:29.849Z,4.41
2024-03-15T01:11:52.082Z,4.41
2024-03-15T01:12:16.059Z,4.40
2024-03-15T01:12:38.525Z,4.40
2024-03-15T01:13:00.835Z,4.39
2024-03-15T01:13:23.055Z,4.37
2024-03-15T01:13:45.329Z,4.37
2024-03-15T01:14:07.394Z,4.36
2024-03-15T01:14:29.597Z,4.35
2024-03-15T01:14:51.696Z,4.34
2024-03-15T01:15:13.980Z,4.33
2024-03-15T01:15:36.336Z,4.33
2024-03-15T01:15:58.503Z,4.32
2024-03-15T01:16:20.588Z,4.31
2024-03-15T01:16:47.688Z,4.31
2024-03-15T01:17:09.880Z,4.30
2024-03-15T01:17:32.092Z,4.29
2024-03-15T01:17:54.352Z,4.28
2024-03-15T01:18:18.755Z,4.28
2024-03-15T01:18:41.572Z,4.28
2024-03-15T01:19:05.348Z,4.28
2024-03-15T01:19:28.330Z,4.29
2024-03-15T01:19:50.687Z,4.30
2024-03-15T01:20:13.242Z,4.32
2024-03-15T01:20:36.047Z,4.33
2024-03-15T01:20:58.149Z,4.35
2024-03-15T01:21:20.351Z,4.36
2024-03-15T01:21:42.926Z,4.37
2024-03-15T01:22:05.335Z,4.38
2024-03-15T01:22:27.413Z,4.39
2024-03-15T01:22:49.484Z,4.40
2024-03-15T01:23:11.711Z,4.39
2024-03-15T01:23:35.684Z,4.39
2024-03-15T01:23:58.549Z,4.39
2024-03-15T01:24:20.880Z,4.38
2024-03-15T01:24:43.120Z,4.37
2024-03-15T01:25:07.598Z,4.37
2024-03-15T01:25:36.122Z,4.36
2024-03-15T01:25:58.413Z,4.34
2024-03-15T01:26:20.508Z,4.33
2024-03-15T01:26:42.697Z,4.32
2024-03-15T01:27:04.893Z,4.31
2024-03-15T01:27:27.256Z,4.29
2024-03-15T01:27:49.623Z,4.28
2024-03-15T01:28:11.788Z,4.27
2024-03-15T01:28:33.977Z,4.26
2024-03-15T01:28:56.476Z,4.26
2024-03-15T01:29:18.748Z,4.24
2024-03-15T01:29:40.950Z,4.24
2024-03-15T01:30:03.741Z,4.23
2024-03-15T01:30:25.987Z,4.23
2024-03-15T01:30:48.396Z,4.24
2024-03-15T01:31:10.659Z,4.25
2024-03-15T01:31:32.728Z,4.26
2024-03-15T01:31:54.832Z,4.27
2024-03-15T01:32:16.975Z,4.29
2024-03-15T01:32:39.091Z,4.30
2024-03-15T01:33:01.575Z,4.32
2024-03-15T01:33:23.905Z,4.33
2024-03-15T01:33:47.919Z,4.35
2024-03-15T01:34:10.476Z,4.36
2024-03-15T01:34:33.535Z,4.36
2024-03-15T01:34:56.154Z,4.37
2024-03-15T01:35:18.368Z,4.37
2024-03-15T01:35:40.691Z,4.36
2024-03-15T01:36:02.886Z,4.36
2024-03-15T01:36:24.976Z,4.36
2024-03-15T01:36:47.324Z,4.35
2024-03-15T01:37:09.745Z,4.34
2024-03-15T01:37:31.948Z,4.34
2024-03-15T01:37:54.102Z,4.33
2024-03-15T01:38:16.201Z,4.32
2024-03-15T01:38:38.320Z,4.31
2024-03-15T01:39:00.511Z,4.30
2024-03-15T01:39:25.456Z,4.29
2024-03-15T01:39:49.436Z,4.29
2024-03-15T01:40:12.206Z,4.27
2024-03-15T01:40:35.958Z,4.27
2024-03-15T01:40:58.043Z,4.26
2024-03-15T01:41:20.325Z,4.25
2024-03-15T01:41:43.358Z,4.25
2024-03-15T01:42:05.687Z,4.24
2024-03-15T01:42:27.843Z,4.23
2024-03-15T01:42:49.957Z,4.22
2024-03-15T01:43:14.782Z,4.22
2024-03-15T01:43:42.901Z,4.22
2024-03-15T01:44:04.977Z,4.22
2024-03-15T01:44:29.130Z,4.24
2024-03-15T01:44:57.465Z,4.24
2024-03-15T01:45:19.594Z,4.26
2024-03-15T01:45:42.122Z,4.27
2024-03-15T01:46:04.437Z,4.28
2024-03-15T01:46:26.501Z,4.30
2024-03-15T01:46:48.623Z,4.30
2024-03-15T01:47:10.814Z,4.31
2024-03-15T01:47:32.922Z,4.32
2024-03-15T01:47:57.027Z,4.32
2024-03-15T01:48:20.052Z,4.32
2024-03-15T01:48:42.309Z,4.31
2024-03-15T01:49:04.641Z,4.31
2024-03-15T01:49:26.944Z,4.30
2024-03-15T01:49:49.271Z,4.30
2024-03-15T01:50:11.881Z,4.29
2024-03-15T01:50:35.176Z,4.27
2024-03-15T01:50:57.356Z,4.27
2024-03-15T01:51:19.480Z,4.27
2024-03-15T01:51:41.677Z,4.26
2024-03-15T01:52:04.460Z,4.26
2024-03-15T01:52:26.850Z,4.25
2024-03-15T01:52:49.037Z,4.24
2024-03-15T01:53:12.050Z,4.24
2024-03-15T01:53:37.011Z,4.24
2024-03-15T01:54:02.170Z,4.22
2024-03-15T01:54:24.241Z,4.23
2024-03-15T01:54:46.447Z,4.22
2024-03-15T01:55:09.371Z,4.22
2024-03-15T01:55:33.217Z,4.21
2024-03-15T01:55:56.100Z,4.21
2024-03-15T01:56:19.184Z,4.21
2024-03-15T01:56:41.423Z,4.21
2024-03-15T01:57:06.477Z,4.22
2024-03-15T01:57:28.849Z,4.23
2024-03-15T01:57:51.102Z,4.24
2024-03-15T01:58:13.241Z,4.25
2024-03-15T01:58:35.294Z,4.27
2024-03-15T01:58:58.478Z,4.28
2024-03-15T01:59:20.565Z,4.29
2024-03-15T01:59:42.968Z,4.31
2024-03-15T02:00:08.056Z,4.31
2024-03-15T02:00:32.065Z,4.32
2024-03-15T02:00:57.407Z,4.32
2024-03-15T02:01:19.755Z,4.32
2024-03-15T02:01:42.951Z,4.31
2024-03-15T02:02:05.228Z,4.31
2024-03-15T02:02:33.260Z,4.30
2024-03-15T02:02:57.745Z,4.29
2024-03-15T02:03:20.855Z,4.27
2024-03-15T02:03:45.461Z,4.26
2024-03-15T02:04:08.024Z,4.26
2024-03-15T02:04:31.367Z,4.25
2024-03-15T02:04:56.430Z,4.24
2024-03-15T02:05:18.604Z,4.22
2024-03-15T02:05:41.238Z,4.22
2024-03-15T02:06:03.485Z,4.21
2024-03-15T02:06:25.628Z,4.20
2024-03-15T02:06:48.364Z,4.19
2024-03-15T02:07:10.705Z,4.17
2024-03-15T02:07:32.807Z,4.17
2024-03-15T02:07:54.880Z,4.16
2024-03-15T02:08:18.529Z,4.15
2024-03-15T02:08:41.117Z,4.14
2024-03-15T02:09:03.331Z,4.13
2024-03-15T02:09:29.301Z,4.12
2024-03-15T02:09:51.635Z,4.13
2024-03-15T02:10:14.764Z,4.14
2024-03-15T02:10:37.034Z,4.15
2024-03-15T02:10:59.214Z,4.16
2024-03-15T02:11:21.491Z,4.17
2024-03-15T02:11:43.881Z,4.18
2024-03-15T02:12:06.023Z,4.19
2024-03-15T02:12:28.185Z,4.20
2024-03-15T02:13:12.954Z,4.22
2024-03-15T02:13:35.024Z,4.22
2024-03-15T02:13:57.892Z,4.22
2024-03-15T02:14:20.149Z,4.21
2024-03-15T02:14:42.199Z,4.21
2024-03-15T02:15:04.697Z,4.20
2024-03-15T02:15:26.853Z,4.19
2024-03-15T02:15:49.230Z,4.18
2024-03-15T02:16:12.768Z,4.17
2024-03-15T02:16:35.518Z,4.17
2024-03-15T02:16:57.650Z,4.15
2024-03-15T02:17:19.886Z,4.14
2024-03-15T02:17:44.226Z,4.13
2024-03-15T02:18:06.513Z,4.12
2024-03-15T02:18:28.827Z,4.12
2024-03-15T02:18:51.688Z,4.11
2024-03-15T02:19:15.431Z,4.10
2024-03-15T02:19:37.615Z,4.10
2024-03-15T02:20:00.258Z,4.10
2024-03-15T02:20:22.692Z,4.09
2024-03-15T02:20:44.830Z,4.08
2024-03-15T02:21:07.014Z,4.08
2024-03-15T02:21:29.316Z,4.08
2024-03-15T02:21:51.524Z,4.08
2024-03-15T02:22:13.758Z,4.09
2024-03-15T02:22:36.002Z,4.10
2024-03-15T02:22:59.625Z,4.12
2024-03-15T02:23:21.898Z,4.14
2024-03-15T02:23:44.195Z,4.16
2024-03-15T02:24:06.929Z,4.17
2024-03-15T02:24:29.140Z,4.19
2024-03-15T02:24:51.425Z,4.21
2024-03-15T02:25:14.306Z,4.21
2024-03-15T02:25:37.535Z,4.22
2024-03-15T02:25:59.612Z,4.23
2024-03-15T02:26:22.615Z,4.23
2024-03-15T02:26:44.809Z,4.23
2024-03-15T02:27:07.958Z,4.23
2024-03-15T02:27:30.328Z,4.23
2024-03-15T02:27:53.180Z,4.23
2024-03-15T02:28:15.349Z,4.22
2024-03-15T02:28:39.670Z,4.21
2024-03-15T02:29:07.657Z,4.21
2024-03-15T02:29:31.328Z,4.21
2024-03-15T02:29:53.507Z,4.20
2024-03-15T02:30:17.598Z,4.19
2024-03-15T02:30:42.124Z,4.19
2024-03-15T02:31:04.552Z,4.18
2024-03-15T02:31:26.713Z,4.17
2024-03-15T02:31:48.973Z,4.16
2024-03-15T02:32:11.493Z,4.16
2024-03-15T02:32:34.175Z,4.16
2024-03-15T02:32:56.462Z,4.14
2024-03-15T02:33:19.328Z,4.13
2024-03-15T02:33:41.703Z,4.12
2024-03-15T02:34:04.457Z,4.11
2024-03-15T02:34:26.987Z,4.10
2024-03-15T02:34:52.255Z,4.09
2024-03-15T02:35:24.505Z,4.09
2024-03-15T02:35:51.496Z,4.09
2024-03-15T02:36:13.803Z,4.08
2024-03-15T02:36:36.022Z,4.08
2024-03-15T02:36:58.210Z,4.08
2024-03-15T02:37:20.786Z,4.09
2024-03-15T02:37:43.048Z,4.10
2024-03-15T02:38:05.165Z,4.11
2024-03-15T02:38:28.354Z,4.13
2024-03-15T02:38:50.794Z,4.15
2024-03-15T02:39:17.886Z,4.16
2024-03-15T02:39:40.184Z,4.18
2024-03-15T02:40:02.459Z,4.19
2024-03-15T02:40:24.511Z,4.20
2024-03-15T02:40:46.730Z,4.21
2024-03-15T02:41:14.789Z,4.22
2024-03-15T02:41:36.851Z,4.22
2024-03-15T02:41:58.984Z,4.23
2024-03-15T02:42:21.360Z,4.23
2024-03-15T02:42:44.012Z,4.22
2024-03-15T02:43:06.278Z,4.22
2024-03-15T02:43:28.335Z,4.21
2024-03-15T02:43:50.544Z,4.21
2024-03-15T02:44:12.916Z,4.20
2024-03-15T02:44:35.051Z,4.20
2024-03-15T02:44:57.130Z,4.18
2024-03-15T02:45:20.299Z,4.17
2024-03-15T02:45:42.573Z,4.17
2024-03-15T02:46:04.791Z,4.16
2024-03-15T02:46:27.283Z,4.15
2024-03-15T02:46:52.581Z,4.14
2024-03-15T02:47:14.667Z,4.13
2024-03-15T02:47:40.266Z,4.12
2024-03-15T02:48:02.730Z,4.11
2024-03-15T02:48:25.009Z,4.10
2024-03-15T02:48:47.298Z,4.09
2024-03-15T02:49:09.941Z,4.08
2024-03-15T02:49:32.165Z,4.07
2024-03-15T02:49:57.284Z,4.06
2024-03-15T02:50:21.385Z,4.06
2024-03-15T02:50:43.706Z,4.05
2024-03-15T02:51:06.489Z,4.04
2024-03-15T02:51:28.753Z,4.04
2024-03-15T02:51:53.013Z,4.02
2024-03-15T02:52:15.242Z,4.02
2024-03-15T02:52:37.436Z,4.02
2024-03-15T02:53:01.082Z,4.02
2024-03-15T02:53:23.681Z,4.03
2024-03-15T02:53:45.871Z,4.04
2024-03-15T02:54:11.615Z,4.05
2024-03-15T02:54:35.324Z,4.06
2024-03-15T02:54:58.031Z,4.07
2024-03-15T02:55:20.257Z,4.07
2024-03-15T02:55:42.327Z,4.08
2024-03-15T02:56:04.748Z,4.09
2024-03-15T02:56:26.832Z,4.10
2024-03-15T02:56:48.898Z,4.11
2024-03-15T02:57:11.005Z,4.12
2024-03-15T02:57:33.268Z,4.13
2024-03-15T02:57:55.630Z,4.12
2024-03-15T02:58:19.877Z,4.12
2024-03-15T02:58:42.282Z,4.12
2024-03-15T02:59:04.420Z,4.11
2024-03-15T02:59:26.994Z,4.11
2024-03-15T02:59:49.239Z,4.10
2024-03-15T03:00:14.983Z,4.09
2024-03-15T03:00:37.270Z,4.08
2024-03-15T03:00:59.566Z,4.08
2024-03-15T03:01:21.780Z,4.07
2024-03-15T03:01:47.330Z,4.07
2024-03-15T03:02:10.010Z,4.06
2024-03-15T03:02:32.164Z,4.05
2024-03-15T03:02:54.643Z,4.05
2024-03-15T03:03:17.097Z,4.04
2024-03-15T03:03:39.391Z,4.04
2024-03-15T03:04:01.602Z,4.04
2024-03-15T03:04:24.166Z,4.03
2024-03-15T03:04:46.557Z,4.03
2024-03-15T03:05:10.264Z,4.02
2024-03-15T03:05:32.785Z,4.02
2024-03-15T03:05:54.974Z,4.01
2024-03-15T03:06:17.200Z,4.02
2024-03-15T03:06:39.475Z,4.03
2024-03-15T03:07:01.662Z,4.03
2024-03-15T03:07:24.067Z,4.04
2024-03-15T03:07:46.125Z,4.05
2024-03-15T03:08:08.174Z,4.06
2024-03-15T03:08:30.261Z,4.07
2024-03-15T03:08:52.302Z,4.08
2024-03-15T03:09:18.324Z,4.09
2024-03-15T03:09:40.528Z,4.10
2024-03-15T03:10:04.978Z,4.10
2024-03-15T03:10:29.171Z,4.10
2024-03-15T03:10:51.297Z,4.11
2024-03-15T03:11:16.423Z,4.10
2024-03-15T03:11:38.715Z,4.09
2024-03-15T03:12:00.786Z,4.08
2024-03-15T03:12:22.893Z,4.08
2024-03-15T03:12:45.206Z,4.07
2024-03-15T03:13:07.491Z,4.06
2024-03-15T03:13:29.699Z,4.05
2024-03-15T03:13:51.959Z,4.04
2024-03-15T03:14:15.357Z,4.03
2024-03-15T03:14:37.622Z,4.01
2024-03-15T03:14:59.791Z,4.00
2024-03-15T03:15:22.161Z,3.98
2024-03-15T03:15:44.325Z,3.98
2024-03-15T03:16:06.624Z,3.97
2024-03-15T03:16:29.009Z,3.96
2024-03-15T03:16:51.264Z,3.95
2024-03-15T03:17:14.420Z,3.94
2024-03-15T03:17:36.491Z,3.92
2024-03-15T03:17:59.814Z,3.92
2024-03-15T03:18:22.725Z,3.91
2024-03-15T03:18:45.004Z,3.91
2024-03-15T03:19:07.367Z,3.91
2024-03-15T03:19:29.547Z,3.92
2024-03-15T03:19:51.602Z,3.93
2024-03-15T03:20:19.980Z,3.93
2024-03-15T03:20:42.231Z,3.95
2024-03-15T03:21:04.835Z,3.96
2024-03-15T03:21:27.420Z,3.97
2024-03-15T03:21:49.802Z,3.98
2024-03-15T03:22:12.095Z,3.99
2024-03-15T03:22:34.194Z,3.99
2024-03-15T03:22:58.103Z,4.00
2024-03-15T03:23:20.324Z,4.00
2024-03-15T03:23:42.417Z,4.00
2024-03-15T03:24:04.876Z,4.00
2024-03-15T03:24:27.058Z,3.99
2024-03-15T03:24:49.490Z,3.99
2024-03-15T03:25:12.109Z,3.98
2024-03-15T03:25:34.643Z,3.98
2024-03-15T03:25:56.716Z,3.97
2024-03-15T03:26:18.780Z,3.97
2024-03-15T03:26:40.836Z,3.95
2024-03-15T03:27:02.992Z,3.95
2024-03-15T03:27:25.119Z,3.93
2024-03-15T03:27:47.530Z,3.92
2024-03-15T03:28:09.874Z,3.91
2024-03-15T03:28:32.080Z,3.90
2024-03-15T03:28:54.605Z,3.89
2024-03-15T03:29:16.780Z,3.87
2024-03-15T03:29:38.963Z,3.86
2024-03-15T03:30:01.013Z,3.85
2024-03-15T03:30:23.209Z,3.84
2024-03-15T03:30:45.955Z,3.82
2024-03-15T03:31:08.559Z,3.82
2024-03-15T03:31:30.641Z,3.82
2024-03-15T03:31:52.709Z,3.82
2024-03-15T03:32:14.934Z,3.82
2024-03-15T03:32:37.325Z,3.82
2024-03-15T03:32:59.669Z,3.83
2024-03-15T03:33:21.959Z,3.83
2024-03-15T03:33:44.383Z,3.84
2024-03-15T03:34:06.585Z,3.85
2024-03-15T03:34:28.793Z,3.85
2024-03-15T03:34:50.912Z,3.86
2024-03-15T03:35:13.112Z,3.87
2024-03-15T03:35:35.268Z,3.87
2024-03-15T03:35:57.877Z,3.86
2024-03-15T03:36:20.092Z,3.87
2024-03-15T03:36:43.810Z,3.86
2024-03-15T03:37:06.193Z,3.85
2024-03-15T03:37:28.384Z,3.84
2024-03-15T03:37:50.501Z,3.84
2024-03-15T03:38:12.770Z,3.83
2024-03-15T03:38:35.070Z,3.82
2024-03-15T03:38:58.182Z,3.80
2024-03-15T03:39:22.453Z,3.80
2024-03-15T03:39:44.813Z,3.79
2024-03-15T03:40:15.604Z,3.78
2024-03-15T03:40:38.305Z,3.78
2024-03-15T03:41:00.503Z,3.78
2024-03-15T03:41:22.695Z,3.76
2024-03-15T03:41:44.794Z,3.76
2024-03-15T03:42:07.102Z,3.76
2024-03-15T03:42:29.422Z,3.76
2024-03-15T03:42:52.065Z,3.74
2024-03-15T03:43:14.991Z,3.74
2024-03-15T03:43:38.735Z,3.73
2024-03-15T03:44:01.016Z,3.73
2024-03-15T03:44:23.086Z,3.74
2024-03-15T03:44:46.355Z,3.76
2024-03-15T03:45:17.253Z,3.76
2024-03-15T03:45:43.441Z,3.78
2024-03-15T03:46:09.796Z,3.78
2024-03-15T03:46:32.638Z,3.79
2024-03-15T03:46:54.887Z,3.80
2024-03-15T03:47:17.178Z,3.81
2024-03-15T03:47:39.401Z,3.82
2024-03-15T03:48:01.542Z,3.82
2024-03-15T03:48:24.168Z,3.82
2024-03-15T03:48:46.531Z,3.82
2024-03-15T03:49:08.741Z,3.82
2024-03-15T03:49:30.960Z,3.82
2024-03-15T03:49:53.150Z,3.81
2024-03-15T03:50:15.271Z,3.81
2024-03-15T03:50:37.346Z,3.80
2024-03-15T03:51:01.975Z,3.79
2024-03-15T03:51:24.192Z,3.78
2024-03-15T03:51:46.365Z,3.77
2024-03-15T03:52:08.762Z,3.75
2024-03-15T03:52:31.406Z,3.74
2024-03-15T03:52:56.756Z,3.73
2024-03-15T03:53:19.025Z,3.72
2024-03-15T03:53:41.083Z,3.70
2024-03-15T03:54:03.192Z,3.69
2024-03-15T03:54:28.146Z,3.67
2024-03-15T03:54:50.336Z,3.66
2024-03-15T03:55:12.578Z,3.64
2024-03-15T03:55:35.071Z,3.64
2024-03-15T03:55:57.669Z,3.62
2024-03-15T03:56:19.779Z,3.61
2024-03-15T03:56:42.862Z,3.61
2024-03-15T03:57:05.320Z,3.62
2024-03-15T03:57:39.060Z,3.62
2024-03-15T03:58:07.388Z,3.63
2024-03-15T03:58:29.967Z,3.64
2024-03-15T03:58:53.888Z,3.64
2024-03-15T03:59:15.961Z,3.65
2024-03-15T03:59:38.956Z,3.67
2024-03-15T04:00:08.603Z,3.68
2024-03-15T04:00:36.254Z,3.68
2024-03-15T04:01:00.172Z,3.69
2024-03-15T04:01:22.546Z,3.69
2024-03-15T04:01:45.109Z,3.68
2024-03-15T04:02:07.377Z,3.68
2024-03-15T04:02:32.635Z,3.67
2024-03-15T04:02:55.731Z,3.66
2024-03-15T04:03:18.060Z,3.65
2024-03-15T04:03:40.193Z,3.65
2024-03-15T04:04:02.465Z,3.65
2024-03-15T04:04:24.755Z,3.63
2024-03-15T04:04:47.178Z,3.63
2024-03-15T04:05:10.702Z,3.61
2024-03-15T04:05:33.066Z,3.60
2024-03-15T04:05:55.139Z,3.60
2024-03-15T04:06:17.281Z,3.59
2024-03-15T04:06:39.673Z,3.57
2024-03-15T04:07:02.848Z,3.56
2024-03-15T04:07:33.850Z,3.55
2024-03-15T04:07:56.340Z,3.53
2024-03-15T04:08:18.500Z,3.52
2024-03-15T04:08:40.621Z,3.51
2024-03-15T04:09:03.020Z,3.50
2024-03-15T04:09:25.244Z,3.49
2024-03-15T04:09:47.429Z,3.48
2024-03-15T04:10:09.599Z,3.47
2024-03-15T04:10:34.425Z,3.46
2024-03-15T04:10:56.635Z,3.45
2024-03-15T04:11:18.825Z,3.45
2024-03-15T04:11:41.121Z,3.45
2024-03-15T04:12:03.560Z,3.46
2024-03-15T04:12:28.458Z,3.46
2024-03-15T04:12:51.099Z,3.48
2024-03-15T04:13:13.371Z,3.48
2024-03-15T04:13:35.434Z,3.50
2024-03-15T04:13:59.511Z,3.51
2024-03-15T04:14:21.648Z,3.52
2024-03-15T04:14:51.094Z,3.54
2024-03-15T04:15:25.663Z,3.57
2024-03-15T04:15:55.385Z,3.58
2024-03-15T04:16:17.720Z,3.59
2024-03-15T04:16:40.599Z,3.59
2024-03-15T04:17:02.664Z,3.59
2024-03-15T04:17:24.787Z,3.59
2024-03-15T04:17:47.706Z,3.58
2024-03-15T04:18:09.975Z,3.57
2024-03-15T04:18:34.230Z,3.57
2024-03-15T04:18:56.539Z,3.56
2024-03-15T04:19:18.809Z,3.55
2024-03-15T04:19:42.983Z,3.53
2024-03-15T04:20:13.426Z,3.53
2024-03-15T04:20:35.625Z,3.52
2024-03-15T04:20:57.689Z,3.52
2024-03-15T04:21:19.837Z,3.50
2024-03-15T04:21:43.807Z,3.50
2024-03-15T04:22:06.344Z,3.50
2024-03-15T04:22:28.533Z,3.49
2024-03-15T04:22:51.595Z,3.49
2024-03-15T04:23:13.945Z,3.48
2024-03-15T04:23:36.036Z,3.47
2024-03-15T04:23:58.225Z,3.47
2024-03-15T04:24:20.332Z,3.46
2024-03-15T04:24:44.704Z,3.46
2024-03-15T04:25:07.266Z,3.45
2024-03-15T04:25:30.000Z,3.44
2024-03-15T04:25:52.292Z,3.44
2024-03-15T04:26:14.367Z,3.44
2024-03-15T04:26:38.238Z,3.44
2024-03-15T04:27:00.302Z,3.44
2024-03-15T04:27:25.234Z,3.45
2024-03-15T04:27:52.989Z,3.46
2024-03-15T04:28:15.760Z,3.48
2024-03-15T04:28:38.964Z,3.50
2024-03-15T04:29:03.933Z,3.51
2024-03-15T04:29:26.038Z,3.53
2024-03-15T04:29:48.217Z,3.54
2024-03-15T04:30:17.868Z,3.56
2024-03-15T04:30:41.687Z,3.57
2024-03-15T04:31:06.722Z,3.57
2024-03-15T04:31:31.940Z,3.57
2024-03-15T04:31:54.014Z,3.57
2024-03-15T04:32:16.080Z,3.56
2024-03-15T04:32:38.357Z,3.55
2024-03-15T04:33:01.166Z,3.55
2024-03-15T04:33:23.610Z,3.54
2024-03-15T04:33:46.022Z,3.53
2024-03-15T04:34:08.523Z,3.53
2024-03-15T04:34:34.475Z,3.52
2024-03-15T04:34:57.184Z,3.52
2024-03-15T04:35:19.626Z,3.51
2024-03-15T04:35:42.099Z,3.51
2024-03-15T04:36:05.990Z,3.50
2024-03-15T04:36:31.441Z,3.49
2024-03-15T04:36:54.810Z,3.48
2024-03-15T04:37:16.957Z,3.47
2024-03-15T04:37:39.187Z,3.47
2024-03-15T04:38:04.978Z,3.46
2024-03-15T04:38:27.257Z,3.45
2024-03-15T04:38:49.366Z,3.45
2024-03-15T04:39:11.774Z,3.44
2024-03-15T04:39:34.014Z,3.43
2024-03-15T04:39:56.964Z,3.43
2024-03-15T04:40:19.140Z,3.43
2024-03-15T04:40:41.204Z,3.42
2024-03-15T04:41:10.750Z,3.42
2024-03-15T04:41:33.299Z,3.42
2024-03-15T04:41:55.357Z,3.42
2024-03-15T04:42:17.542Z,3.42
2024-03-15T04:42:39.790Z,3.44
2024-03-15T04:43:01.862Z,3.45
2024-03-15T04:43:26.638Z,3.46
2024-03-15T04:43:49.108Z,3.47
2024-03-15T04:44:11.210Z,3.49
2024-03-15T04:44:37.956Z,3.50
2024-03-15T04:45:06.359Z,3.51
2024-03-15T04:45:28.724Z,3.52
2024-03-15T04:45:51.183Z,3.53
2024-03-15T04:46:13.556Z,3.53
2024-03-15T04:46:35.734Z,3.53
2024-03-15T04:46:57.791Z,3.53
2024-03-15T04:47:19.848Z,3.52
2024-03-15T04:47:42.327Z,3.52
2024-03-15T04:48:06.669Z,3.52
2024-03-15T04:48:29.879Z,3.51
2024-03-15T04:48:52.226Z,3.50
2024-03-15T04:49:14.356Z,3.50
2024-03-15T04:49:36.427Z,3.49
2024-03-15T04:50:00.943Z,3.49
2024-03-15T04:50:23.388Z,3.48
2024-03-15T04:50:46.812Z,3.47
2024-03-15T04:51:08.949Z,3.46
2024-03-15T04:51:31.392Z,3.45
2024-03-15T04:51:53.711Z,3.45
2024-03-15T04:52:15.919Z,3.44
2024-03-15T04:52:38.175Z,3.44
2024-03-15T04:53:00.296Z,3.44
2024-03-15T04:53:22.651Z,3.44
2024-03-15T04:53:44.759Z,3.42
2024-03-15T04:54:07.596Z,3.43
2024-03-15T04:54:31.104Z,3.42
2024-03-15T04:54:53.284Z,3.42
2024-03-15T04:55:15.538Z,3.43
2024-03-15T04:55:37.875Z,3.44
2024-03-15T04:56:00.361Z,3.45
2024-03-15T04:56:22.667Z,3.47
2024-03-15T04:56:46.401Z,3.48
2024-03-15T04:57:08.726Z,3.50
2024-03-15T04:57:30.949Z,3.53
2024-03-15T04:57:53.214Z,3.54
2024-03-15T04:58:16.095Z,3.56
2024-03-15T04:58:38.287Z,3.58
2024-03-15T04:59:00.396Z,3.58
2024-03-15T04:59:22.699Z,3.59
2024-03-15T04:59:45.803Z,3.60
2024-03-15T05:00:27.099Z,3.60
2024-03-15T05:00:49.790Z,3.60
2024-03-15T05:01:13.308Z,3.60
2024-03-15T05:01:35.555Z,3.59
2024-03-15T05:01:57.842Z,3.59
2024-03-15T05:02:20.633Z,3.58
2024-03-15T05:02:43.038Z,3.58
2024-03-15T05:03:05.104Z,3.58
2024-03-15T05:03:28.791Z,3.57
2024-03-15T05:03:51.616Z,3.57
2024-03-15T05:04:14.160Z,3.56
2024-03-15T05:04:36.348Z,3.56
2024-03-15T05:04:58.445Z,3.56
2024-03-15T05:05:22.848Z,3.56